sensor_id;sensor_type;location;lat;lon;timestamp;temperature;humidity
18105;DHT22;9179;50.968;3.134;2023-07-16T00:02:01;18.60;99.90
18105;DHT22;9179;50.968;3.134;2023-07-16T00:04:28;18.70;99.90
18105;DHT22;9179;50.968;3.134;2023-07-16T00:06:55;18.70;99.90
18105;DHT22;9179;50.968;3.134;2023-07-16T00:09:22;18.80;99.90
18105;DHT22;9179;50.968;3.134;2023-07-16T00:11:49;18.90;99.90
18105;DHT22;9179;50.968;3.134;2023-07-16T00:14:18;18.90;99.90
18105;DHT22;9179;50.968;3.134;2023-07-16T00:16:45;18.90;99.90
18105;DHT22;9179;50.968;3.134;2023-07-16T00:19:11;18.90;99.90
18105;DHT22;9179;50.968;3.134;2023-07-16T00:21:38;18.90;99.90
18105;DHT22;9179;50.968;3.134;2023-07-16T00:24:05;18.90;99.90
18105;DHT22;9179;50.968;3.134;2023-07-16T00:26:32;18.90;99.90
18105;DHT22;9179;50.968;3.134;2023-07-16T00:28:59;18.90;99.90
18105;DHT22;9179;50.968;3.134;2023-07-16T00:31:27;18.80;99.90
18105;DHT22;9179;50.968;3.134;2023-07-16T00:33:54;18.60;99.90
18105;DHT22;9179;50.968;3.134;2023-07-16T00:36:21;18.40;99.90
18105;DHT22;9179;50.968;3.134;2023-07-16T00:38:48;18.10;99.90
18105;DHT22;9179;50.968;3.134;2023-07-16T00:41:15;18.00;99.90
18105;DHT22;9179;50.968;3.134;2023-07-16T00:43:42;17.90;99.90
18105;DHT22;9179;50.968;3.134;2023-07-16T00:46:10;17.90;99.90
18105;DHT22;9179;50.968;3.134;2023-07-16T00:48:40;17.80;99.90
18105;DHT22;9179;50.968;3.134;2023-07-16T00:51:07;18.00;99.90
18105;DHT22;9179;50.968;3.134;2023-07-16T00:53:34;18.00;99.90
18105;DHT22;9179;50.968;3.134;2023-07-16T00:56:01;18.00;99.90
18105;DHT22;9179;50.968;3.134;2023-07-16T00:58:28;18.10;99.90
18105;DHT22;9179;50.968;3.134;2023-07-16T01:00:55;18.10;99.90
18105;DHT22;9179;50.968;3.134;2023-07-16T01:03:22;18.30;99.90
18105;DHT22;9179;50.968;3.134;2023-07-16T01:05:57;18.40;99.90
18105;DHT22;9179;50.968;3.134;2023-07-16T01:08:30;18.40;99.90
18105;DHT22;9179;50.968;3.134;2023-07-16T01:10:58;18.50;99.90
18105;DHT22;9179;50.968;3.134;2023-07-16T01:13:27;18.60;99.90
18105;DHT22;9179;50.968;3.134;2023-07-16T01:15:54;18.70;99.90
18105;DHT22;9179;50.968;3.134;2023-07-16T01:18:21;18.70;99.90
18105;DHT22;9179;50.968;3.134;2023-07-16T01:20:49;18.70;99.90
18105;DHT22;9179;50.968;3.134;2023-07-16T01:23:35;18.70;99.90
18105;DHT22;9179;50.968;3.134;2023-07-16T01:26:19;18.60;99.90
18105;DHT22;9179;50.968;3.134;2023-07-16T01:31:52;18.30;99.90
18105;DHT22;9179;50.968;3.134;2023-07-16T01:34:22;18.10;99.90
18105;DHT22;9179;50.968;3.134;2023-07-16T01:36:49;18.00;99.90
18105;DHT22;9179;50.968;3.134;2023-07-16T01:39:16;17.90;99.90
18105;DHT22;9179;50.968;3.134;2023-07-16T01:41:43;17.90;99.90
18105;DHT22;9179;50.968;3.134;2023-07-16T01:44:10;18.00;99.90
18105;DHT22;9179;50.968;3.134;2023-07-16T01:46:37;18.10;99.90
18105;DHT22;9179;50.968;3.134;2023-07-16T01:49:06;18.30;99.90
18105;DHT22;9179;50.968;3.134;2023-07-16T01:51:33;18.50;99.90
18105;DHT22;9179;50.968;3.134;2023-07-16T01:53:59;18.60;99.90
18105;DHT22;9179;50.968;3.134;2023-07-16T01:56:26;18.80;99.90
18105;DHT22;9179;50.968;3.134;2023-07-16T01:58:53;18.80;99.90
18105;DHT22;9179;50.968;3.134;2023-07-16T02:01:20;18.80;99.90
18105;DHT22;9179;50.968;3.134;2023-07-16T02:03:47;18.90;99.90
18105;DHT22;9179;50.968;3.134;2023-07-16T02:06:15;18.70;99.90
18105;DHT22;9179;50.968;3.134;2023-07-16T02:08:42;18.60;99.90
18105;DHT22;9179;50.968;3.134;2023-07-16T02:11:09;18.50;99.90
18105;DHT22;9179;50.968;3.134;2023-07-16T02:13:36;18.30;99.90
18105;DHT22;9179;50.968;3.134;2023-07-16T02:16:03;18.10;99.90
18105;DHT22;9179;50.968;3.134;2023-07-16T02:18:30;18.00;99.90
18105;DHT22;9179;50.968;3.134;2023-07-16T02:20:57;17.90;99.90
18105;DHT22;9179;50.968;3.134;2023-07-16T02:23:25;17.80;99.90
18105;DHT22;9179;50.968;3.134;2023-07-16T02:25:52;17.70;99.90
18105;DHT22;9179;50.968;3.134;2023-07-16T02:28:19;17.70;99.90
18105;DHT22;9179;50.968;3.134;2023-07-16T02:30:49;17.80;99.90
18105;DHT22;9179;50.968;3.134;2023-07-16T02:33:16;17.90;99.90
18105;DHT22;9179;50.968;3.134;2023-07-16T02:35:46;18.00;99.90
18105;DHT22;9179;50.968;3.134;2023-07-16T02:38:14;18.00;99.90
18105;DHT22;9179;50.968;3.134;2023-07-16T02:40:44;18.20;99.90
18105;DHT22;9179;50.968;3.134;2023-07-16T02:43:11;18.40;99.90
18105;DHT22;9179;50.968;3.134;2023-07-16T02:45:38;18.40;99.90
18105;DHT22;9179;50.968;3.134;2023-07-16T02:48:06;18.20;99.90
18105;DHT22;9179;50.968;3.134;2023-07-16T02:50:33;18.10;99.90
18105;DHT22;9179;50.968;3.134;2023-07-16T02:53:00;18.10;99.90
18105;DHT22;9179;50.968;3.134;2023-07-16T02:55:27;18.20;99.90
18105;DHT22;9179;50.968;3.134;2023-07-16T02:57:56;18.30;99.90
18105;DHT22;9179;50.968;3.134;2023-07-16T03:00:23;18.40;99.90
18105;DHT22;9179;50.968;3.134;2023-07-16T03:02:50;18.50;99.90
18105;DHT22;9179;50.968;3.134;2023-07-16T03:05:17;18.60;99.90
18105;DHT22;9179;50.968;3.134;2023-07-16T03:07:44;18.60;99.90
18105;DHT22;9179;50.968;3.134;2023-07-16T03:10:10;18.60;99.90
18105;DHT22;9179;50.968;3.134;2023-07-16T03:12:37;18.50;99.90
18105;DHT22;9179;50.968;3.134;2023-07-16T03:15:07;18.30;99.90
18105;DHT22;9179;50.968;3.134;2023-07-16T03:17:34;18.20;99.90
18105;DHT22;9179;50.968;3.134;2023-07-16T03:20:01;18.30;99.90
18105;DHT22;9179;50.968;3.134;2023-07-16T03:22:28;18.40;99.90
18105;DHT22;9179;50.968;3.134;2023-07-16T03:24:55;18.40;99.90
18105;DHT22;9179;50.968;3.134;2023-07-16T03:27:22;18.30;99.90
18105;DHT22;9179;50.968;3.134;2023-07-16T03:29:49;18.20;99.90
18105;DHT22;9179;50.968;3.134;2023-07-16T03:32:17;18.00;99.90
18105;DHT22;9179;50.968;3.134;2023-07-16T03:34:44;17.90;99.90
18105;DHT22;9179;50.968;3.134;2023-07-16T03:37:11;17.90;99.90
18105;DHT22;9179;50.968;3.134;2023-07-16T03:39:38;17.80;99.90
18105;DHT22;9179;50.968;3.134;2023-07-16T03:42:05;18.00;99.90
18105;DHT22;9179;50.968;3.134;2023-07-16T03:44:32;18.00;99.90
18105;DHT22;9179;50.968;3.134;2023-07-16T03:46:59;18.10;99.90
18105;DHT22;9179;50.968;3.134;2023-07-16T03:49:27;18.30;99.90
18105;DHT22;9179;50.968;3.134;2023-07-16T03:51:54;18.30;99.90
18105;DHT22;9179;50.968;3.134;2023-07-16T03:54:21;18.20;99.90
18105;DHT22;9179;50.968;3.134;2023-07-16T03:56:47;18.30;99.90
18105;DHT22;9179;50.968;3.134;2023-07-16T03:59:15;18.40;99.90
18105;DHT22;9179;50.968;3.134;2023-07-16T04:01:41;18.40;99.90
18105;DHT22;9179;50.968;3.134;2023-07-16T04:04:08;18.40;99.90
18105;DHT22;9179;50.968;3.134;2023-07-16T04:06:37;18.40;99.90
18105;DHT22;9179;50.968;3.134;2023-07-16T04:09:03;18.50;99.90
18105;DHT22;9179;50.968;3.134;2023-07-16T04:11:30;18.50;99.90
18105;DHT22;9179;50.968;3.134;2023-07-16T04:13:57;18.50;99.90
18105;DHT22;9179;50.968;3.134;2023-07-16T04:16:24;18.60;99.90
18105;DHT22;9179;50.968;3.134;2023-07-16T04:18:51;18.70;99.90
18105;DHT22;9179;50.968;3.134;2023-07-16T04:21:18;18.70;99.90
18105;DHT22;9179;50.968;3.134;2023-07-16T04:23:46;18.60;99.90
18105;DHT22;9179;50.968;3.134;2023-07-16T04:26:13;18.70;99.90
18105;DHT22;9179;50.968;3.134;2023-07-16T04:28:40;18.80;99.90
18105;DHT22;9179;50.968;3.134;2023-07-16T04:31:07;19.00;99.90
18105;DHT22;9179;50.968;3.134;2023-07-16T04:33:34;19.00;99.90
18105;DHT22;9179;50.968;3.134;2023-07-16T04:36:00;19.00;99.90
18105;DHT22;9179;50.968;3.134;2023-07-16T04:38:27;18.90;99.90
18105;DHT22;9179;50.968;3.134;2023-07-16T04:40:55;18.80;99.90
18105;DHT22;9179;50.968;3.134;2023-07-16T04:43:22;18.90;99.90
18105;DHT22;9179;50.968;3.134;2023-07-16T04:45:49;19.10;99.90
18105;DHT22;9179;50.968;3.134;2023-07-16T04:48:16;19.20;99.90
18105;DHT22;9179;50.968;3.134;2023-07-16T04:50:43;19.40;99.90
18105;DHT22;9179;50.968;3.134;2023-07-16T04:53:10;19.50;99.90
18105;DHT22;9179;50.968;3.134;2023-07-16T04:55:37;19.50;99.90
18105;DHT22;9179;50.968;3.134;2023-07-16T04:58:06;19.40;99.90
18105;DHT22;9179;50.968;3.134;2023-07-16T05:00:33;19.20;99.90
18105;DHT22;9179;50.968;3.134;2023-07-16T05:02:59;19.30;99.90
18105;DHT22;9179;50.968;3.134;2023-07-16T05:05:27;19.60;99.90
18105;DHT22;9179;50.968;3.134;2023-07-16T05:07:54;20.50;99.90
18105;DHT22;9179;50.968;3.134;2023-07-16T05:10:21;20.70;99.90
18105;DHT22;9179;50.968;3.134;2023-07-16T05:12:48;20.80;99.90
18105;DHT22;9179;50.968;3.134;2023-07-16T05:15:16;20.80;99.90
18105;DHT22;9179;50.968;3.134;2023-07-16T05:17:43;20.90;99.90
18105;DHT22;9179;50.968;3.134;2023-07-16T05:20:10;20.70;99.90
18105;DHT22;9179;50.968;3.134;2023-07-16T05:22:37;21.00;99.90
18105;DHT22;9179;50.968;3.134;2023-07-16T05:25:05;21.60;99.90
18105;DHT22;9179;50.968;3.134;2023-07-16T05:27:32;21.80;99.90
18105;DHT22;9179;50.968;3.134;2023-07-16T05:29:59;22.10;99.90
18105;DHT22;9179;50.968;3.134;2023-07-16T05:32:27;22.40;99.90
18105;DHT22;9179;50.968;3.134;2023-07-16T05:34:54;22.50;99.90
18105;DHT22;9179;50.968;3.134;2023-07-16T05:37:21;22.50;99.90
18105;DHT22;9179;50.968;3.134;2023-07-16T05:39:48;22.40;99.90
18105;DHT22;9179;50.968;3.134;2023-07-16T05:42:15;22.50;99.90
18105;DHT22;9179;50.968;3.134;2023-07-16T05:44:41;22.50;99.90
18105;DHT22;9179;50.968;3.134;2023-07-16T05:47:10;22.80;99.90
18105;DHT22;9179;50.968;3.134;2023-07-16T05:49:38;23.00;99.70
18105;DHT22;9179;50.968;3.134;2023-07-16T05:52:06;23.00;99.40
18105;DHT22;9179;50.968;3.134;2023-07-16T05:54:34;23.00;99.10
18105;DHT22;9179;50.968;3.134;2023-07-16T05:57:01;23.80;98.90
18105;DHT22;9179;50.968;3.134;2023-07-16T05:59:27;24.50;98.10
18105;DHT22;9179;50.968;3.134;2023-07-16T06:01:54;25.20;97.50
18105;DHT22;9179;50.968;3.134;2023-07-16T06:04:23;24.50;95.60
18105;DHT22;9179;50.968;3.134;2023-07-16T06:06:51;23.60;95.80
18105;DHT22;9179;50.968;3.134;2023-07-16T06:09:18;23.10;96.60
18105;DHT22;9179;50.968;3.134;2023-07-16T06:11:46;22.60;97.00
18105;DHT22;9179;50.968;3.134;2023-07-16T06:14:14;22.10;97.70
18105;DHT22;9179;50.968;3.134;2023-07-16T06:16:41;21.50;98.40
18105;DHT22;9179;50.968;3.134;2023-07-16T06:19:08;21.10;99.10
18105;DHT22;9179;50.968;3.134;2023-07-16T06:21:35;20.90;99.60
18105;DHT22;9179;50.968;3.134;2023-07-16T06:24:03;21.10;99.90
18105;DHT22;9179;50.968;3.134;2023-07-16T06:26:30;21.40;99.90
18105;DHT22;9179;50.968;3.134;2023-07-16T06:28:57;21.40;99.90
18105;DHT22;9179;50.968;3.134;2023-07-16T06:31:24;21.60;99.90
18105;DHT22;9179;50.968;3.134;2023-07-16T06:33:51;22.70;99.90
18105;DHT22;9179;50.968;3.134;2023-07-16T06:36:18;23.70;99.40
18105;DHT22;9179;50.968;3.134;2023-07-16T06:38:46;24.60;98.00
18105;DHT22;9179;50.968;3.134;2023-07-16T06:41:14;25.00;97.30
18105;DHT22;9179;50.968;3.134;2023-07-16T06:43:41;24.30;96.10
18105;DHT22;9179;50.968;3.134;2023-07-16T06:46:08;24.40;96.60
18105;DHT22;9179;50.968;3.134;2023-07-16T06:48:35;25.30;96.00
18105;DHT22;9179;50.968;3.134;2023-07-16T06:51:02;25.00;94.90
18105;DHT22;9179;50.968;3.134;2023-07-16T06:53:29;25.40;95.20
18105;DHT22;9179;50.968;3.134;2023-07-16T06:55:55;26.10;94.50
18105;DHT22;9179;50.968;3.134;2023-07-16T06:58:31;27.50;93.20
18105;DHT22;9179;50.968;3.134;2023-07-16T07:00:58;26.50;91.70
18105;DHT22;9179;50.968;3.134;2023-07-16T07:03:25;25.30;92.30
18105;DHT22;9179;50.968;3.134;2023-07-16T07:05:52;24.90;93.40
18105;DHT22;9179;50.968;3.134;2023-07-16T07:08:19;26.00;93.80
18105;DHT22;9179;50.968;3.134;2023-07-16T07:10:48;27.30;92.60
18105;DHT22;9179;50.968;3.134;2023-07-16T07:13:15;27.60;91.20
18105;DHT22;9179;50.968;3.134;2023-07-16T07:15:43;27.30;91.10
18105;DHT22;9179;50.968;3.134;2023-07-16T07:18:10;27.20;90.40
18105;DHT22;9179;50.968;3.134;2023-07-16T07:20:36;27.20;90.40
18105;DHT22;9179;50.968;3.134;2023-07-16T07:23:03;26.80;90.20
18105;DHT22;9179;50.968;3.134;2023-07-16T07:25:30;26.70;90.70
18105;DHT22;9179;50.968;3.134;2023-07-16T07:27:57;26.50;90.20
18105;DHT22;9179;50.968;3.134;2023-07-16T07:30:24;26.00;90.20
18105;DHT22;9179;50.968;3.134;2023-07-16T07:32:53;25.20;90.80
18105;DHT22;9179;50.968;3.134;2023-07-16T07:35:20;24.70;91.30
18105;DHT22;9179;50.968;3.134;2023-07-16T07:37:46;24.20;92.00
18105;DHT22;9179;50.968;3.134;2023-07-16T07:40:14;23.90;92.60
18105;DHT22;9179;50.968;3.134;2023-07-16T07:42:41;23.80;93.10
18105;DHT22;9179;50.968;3.134;2023-07-16T07:45:09;23.30;93.60
18105;DHT22;9179;50.968;3.134;2023-07-16T07:47:36;23.00;94.00
18105;DHT22;9179;50.968;3.134;2023-07-16T07:50:05;22.60;94.50
18105;DHT22;9179;50.968;3.134;2023-07-16T07:52:32;22.10;95.40
18105;DHT22;9179;50.968;3.134;2023-07-16T07:54:59;21.60;96.10
18105;DHT22;9179;50.968;3.134;2023-07-16T07:57:26;21.40;96.70
18105;DHT22;9179;50.968;3.134;2023-07-16T07:59:53;21.40;97.30
18105;DHT22;9179;50.968;3.134;2023-07-16T08:02:23;21.30;97.50
18105;DHT22;9179;50.968;3.134;2023-07-16T08:04:50;21.30;97.70
18105;DHT22;9179;50.968;3.134;2023-07-16T08:07:19;21.20;97.90
18105;DHT22;9179;50.968;3.134;2023-07-16T08:09:46;21.30;98.20
18105;DHT22;9179;50.968;3.134;2023-07-16T08:12:13;21.30;98.30
18105;DHT22;9179;50.968;3.134;2023-07-16T08:14:40;21.20;99.00
18105;DHT22;9179;50.968;3.134;2023-07-16T08:17:08;21.00;99.10
18105;DHT22;9179;50.968;3.134;2023-07-16T08:19:35;21.00;99.30
18105;DHT22;9179;50.968;3.134;2023-07-16T08:22:01;21.10;99.60
18105;DHT22;9179;50.968;3.134;2023-07-16T08:24:30;20.10;99.90
18105;DHT22;9179;50.968;3.134;2023-07-16T08:26:57;19.80;99.90
18105;DHT22;9179;50.968;3.134;2023-07-16T08:29:23;20.70;99.90
18105;DHT22;9179;50.968;3.134;2023-07-16T08:31:50;21.50;99.90
18105;DHT22;9179;50.968;3.134;2023-07-16T08:34:17;21.70;99.90
18105;DHT22;9179;50.968;3.134;2023-07-16T08:36:44;21.80;99.90
18105;DHT22;9179;50.968;3.134;2023-07-16T08:39:11;21.80;99.90
18105;DHT22;9179;50.968;3.134;2023-07-16T08:41:40;21.80;99.90
18105;DHT22;9179;50.968;3.134;2023-07-16T08:44:06;21.90;99.90
18105;DHT22;9179;50.968;3.134;2023-07-16T08:46:33;22.00;99.90
18105;DHT22;9179;50.968;3.134;2023-07-16T08:49:01;22.30;99.90
18105;DHT22;9179;50.968;3.134;2023-07-16T08:51:30;22.80;99.90
18105;DHT22;9179;50.968;3.134;2023-07-16T08:53:57;23.30;99.90
18105;DHT22;9179;50.968;3.134;2023-07-16T08:56:24;24.30;99.90
18105;DHT22;9179;50.968;3.134;2023-07-16T08:58:54;25.10;99.90
18105;DHT22;9179;50.968;3.134;2023-07-16T09:01:22;25.00;99.50
18105;DHT22;9179;50.968;3.134;2023-07-16T09:03:49;24.70;98.60
18105;DHT22;9179;50.968;3.134;2023-07-16T09:06:16;24.20;98.50
18105;DHT22;9179;50.968;3.134;2023-07-16T09:08:43;23.70;97.90
18105;DHT22;9179;50.968;3.134;2023-07-16T09:11:11;23.60;97.50
18105;DHT22;9179;50.968;3.134;2023-07-16T09:13:44;23.40;97.00
18105;DHT22;9179;50.968;3.134;2023-07-16T09:16:12;23.60;96.70
18105;DHT22;9179;50.968;3.134;2023-07-16T09:18:42;23.90;96.20
18105;DHT22;9179;50.968;3.134;2023-07-16T09:21:09;24.00;95.40
18105;DHT22;9179;50.968;3.134;2023-07-16T09:23:36;24.10;95.50
18105;DHT22;9179;50.968;3.134;2023-07-16T09:26:03;24.70;95.90
18105;DHT22;9179;50.968;3.134;2023-07-16T09:28:31;24.80;95.40
18105;DHT22;9179;50.968;3.134;2023-07-16T09:31:04;26.30;95.60
18105;DHT22;9179;50.968;3.134;2023-07-16T09:33:33;27.70;93.50
18105;DHT22;9179;50.968;3.134;2023-07-16T09:36:00;28.40;92.20
18105;DHT22;9179;50.968;3.134;2023-07-16T09:38:29;29.10;90.60
18105;DHT22;9179;50.968;3.134;2023-07-16T09:40:56;29.10;88.50
18105;DHT22;9179;50.968;3.134;2023-07-16T09:43:23;29.20;87.90
18105;DHT22;9179;50.968;3.134;2023-07-16T09:45:50;29.90;86.90
18105;DHT22;9179;50.968;3.134;2023-07-16T09:48:17;30.30;84.50
18105;DHT22;9179;50.968;3.134;2023-07-16T09:50:51;31.00;81.50
18105;DHT22;9179;50.968;3.134;2023-07-16T09:53:20;31.50;79.60
18105;DHT22;9179;50.968;3.134;2023-07-16T09:55:48;31.30;77.30
18105;DHT22;9179;50.968;3.134;2023-07-16T09:58:17;30.70;77.10
18105;DHT22;9179;50.968;3.134;2023-07-16T10:00:46;29.70;77.90
18105;DHT22;9179;50.968;3.134;2023-07-16T10:03:14;29.70;79.10
18105;DHT22;9179;50.968;3.134;2023-07-16T10:05:42;28.70;79.60
18105;DHT22;9179;50.968;3.134;2023-07-16T10:08:17;28.80;80.20
18105;DHT22;9179;50.968;3.134;2023-07-16T10:10:46;28.90;80.60
18105;DHT22;9179;50.968;3.134;2023-07-16T10:13:14;29.90;79.50
18105;DHT22;9179;50.968;3.134;2023-07-16T10:15:51;29.70;78.50
18105;DHT22;9179;50.968;3.134;2023-07-16T10:18:25;29.60;77.90
18105;DHT22;9179;50.968;3.134;2023-07-16T10:21:03;29.40;77.90
18105;DHT22;9179;50.968;3.134;2023-07-16T10:23:39;30.00;76.40
18105;DHT22;9179;50.968;3.134;2023-07-16T10:26:07;29.50;78.10
18105;DHT22;9179;50.968;3.134;2023-07-16T10:28:36;30.70;76.10
18105;DHT22;9179;50.968;3.134;2023-07-16T10:31:03;29.70;75.50
18105;DHT22;9179;50.968;3.134;2023-07-16T10:33:30;30.10;76.30
18105;DHT22;9179;50.968;3.134;2023-07-16T10:35:59;30.40;75.60
18105;DHT22;9179;50.968;3.134;2023-07-16T10:38:26;30.40;73.60
18105;DHT22;9179;50.968;3.134;2023-07-16T10:40:55;29.20;75.00
18105;DHT22;9179;50.968;3.134;2023-07-16T10:43:25;30.10;75.60
18105;DHT22;9179;50.968;3.134;2023-07-16T10:45:52;30.10;73.70
18105;DHT22;9179;50.968;3.134;2023-07-16T10:48:24;29.80;74.30
18105;DHT22;9179;50.968;3.134;2023-07-16T10:50:53;29.40;74.60
18105;DHT22;9179;50.968;3.134;2023-07-16T10:53:20;29.60;74.80
18105;DHT22;9179;50.968;3.134;2023-07-16T10:55:47;29.90;74.80
18105;DHT22;9179;50.968;3.134;2023-07-16T10:58:16;29.00;74.80
18105;DHT22;9179;50.968;3.134;2023-07-16T11:00:43;29.00;75.90
18105;DHT22;9179;50.968;3.134;2023-07-16T11:03:14;28.50;75.80
18105;DHT22;9179;50.968;3.134;2023-07-16T11:05:41;27.90;76.80
18105;DHT22;9179;50.968;3.134;2023-07-16T11:08:21;28.20;78.10
18105;DHT22;9179;50.968;3.134;2023-07-16T11:10:53;28.70;77.60
18105;DHT22;9179;50.968;3.134;2023-07-16T11:13:25;28.50;76.00
18105;DHT22;9179;50.968;3.134;2023-07-16T11:15:52;27.70;76.60
18105;DHT22;9179;50.968;3.134;2023-07-16T11:18:22;27.00;78.30
18105;DHT22;9179;50.968;3.134;2023-07-16T11:20:51;26.80;79.80
18105;DHT22;9179;50.968;3.134;2023-07-16T11:23:18;27.20;80.90
18105;DHT22;9179;50.968;3.134;2023-07-16T11:25:46;28.30;79.80
18105;DHT22;9179;50.968;3.134;2023-07-16T11:28:13;29.80;77.90
18105;DHT22;9179;50.968;3.134;2023-07-16T11:30:41;30.50;76.90
18105;DHT22;9179;50.968;3.134;2023-07-16T11:33:10;30.30;75.00
18105;DHT22;9179;50.968;3.134;2023-07-16T11:35:38;30.30;75.50
18105;DHT22;9179;50.968;3.134;2023-07-16T11:38:05;30.40;75.40
18105;DHT22;9179;50.968;3.134;2023-07-16T11:40:34;30.90;74.80
18105;DHT22;9179;50.968;3.134;2023-07-16T11:43:08;31.70;73.50
18105;DHT22;9179;50.968;3.134;2023-07-16T11:45:35;31.60;71.80
18105;DHT22;9179;50.968;3.134;2023-07-16T11:48:04;30.70;71.30
18105;DHT22;9179;50.968;3.134;2023-07-16T11:50:31;28.90;72.70
18105;DHT22;9179;50.968;3.134;2023-07-16T11:53:00;27.90;74.40
18105;DHT22;9179;50.968;3.134;2023-07-16T11:55:27;27.80;76.30
18105;DHT22;9179;50.968;3.134;2023-07-16T11:57:54;28.90;76.30
18105;DHT22;9179;50.968;3.134;2023-07-16T12:00:22;30.40;75.00
18105;DHT22;9179;50.968;3.134;2023-07-16T12:02:49;32.00;72.60
18105;DHT22;9179;50.968;3.134;2023-07-16T12:05:19;32.20;69.30
18105;DHT22;9179;50.968;3.134;2023-07-16T12:07:46;31.30;68.60
18105;DHT22;9179;50.968;3.134;2023-07-16T12:10:13;30.30;70.10
18105;DHT22;9179;50.968;3.134;2023-07-16T12:12:40;31.50;70.80
18105;DHT22;9179;50.968;3.134;2023-07-16T12:15:08;32.00;68.10
18105;DHT22;9179;50.968;3.134;2023-07-16T12:17:35;31.10;68.20
18105;DHT22;9179;50.968;3.134;2023-07-16T12:20:03;30.90;68.80
18105;DHT22;9179;50.968;3.134;2023-07-16T12:22:31;31.60;68.00
18105;DHT22;9179;50.968;3.134;2023-07-16T12:24:58;32.70;66.70
18105;DHT22;9179;50.968;3.134;2023-07-16T12:27:25;33.50;65.30
18105;DHT22;9179;50.968;3.134;2023-07-16T12:29:52;32.70;63.30
18105;DHT22;9179;50.968;3.134;2023-07-16T12:32:19;31.10;64.10
18105;DHT22;9179;50.968;3.134;2023-07-16T12:34:46;29.30;66.90
18105;DHT22;9179;50.968;3.134;2023-07-16T12:37:13;28.70;69.00
18105;DHT22;9179;50.968;3.134;2023-07-16T12:39:43;30.40;68.90
18105;DHT22;9179;50.968;3.134;2023-07-16T12:42:10;31.20;66.80
18105;DHT22;9179;50.968;3.134;2023-07-16T12:44:37;31.70;64.60
18105;DHT22;9179;50.968;3.134;2023-07-16T12:47:04;32.00;64.20
18105;DHT22;9179;50.968;3.134;2023-07-16T12:49:34;31.90;63.20
18105;DHT22;9179;50.968;3.134;2023-07-16T12:52:01;32.30;63.80
18105;DHT22;9179;50.968;3.134;2023-07-16T12:54:29;31.60;62.30
18105;DHT22;9179;50.968;3.134;2023-07-16T12:56:57;30.90;63.40
18105;DHT22;9179;50.968;3.134;2023-07-16T12:59:24;31.10;63.50
18105;DHT22;9179;50.968;3.134;2023-07-16T13:01:51;30.10;63.20
18105;DHT22;9179;50.968;3.134;2023-07-16T13:04:18;29.60;65.30
18105;DHT22;9179;50.968;3.134;2023-07-16T13:06:45;31.00;64.90
18105;DHT22;9179;50.968;3.134;2023-07-16T13:09:13;33.80;62.10
18105;DHT22;9179;50.968;3.134;2023-07-16T13:11:41;34.70;59.80
18105;DHT22;9179;50.968;3.134;2023-07-16T13:14:09;34.10;58.30
18105;DHT22;9179;50.968;3.134;2023-07-16T13:16:36;33.50;58.70
18105;DHT22;9179;50.968;3.134;2023-07-16T13:19:03;31.90;59.80
18105;DHT22;9179;50.968;3.134;2023-07-16T13:21:30;31.10;61.10
18105;DHT22;9179;50.968;3.134;2023-07-16T13:23:57;30.70;63.00
18105;DHT22;9179;50.968;3.134;2023-07-16T13:26:24;30.80;62.40
18105;DHT22;9179;50.968;3.134;2023-07-16T13:28:51;30.30;63.50
18105;DHT22;9179;50.968;3.134;2023-07-16T13:31:19;30.30;62.90
18105;DHT22;9179;50.968;3.134;2023-07-16T13:33:46;32.30;61.10
18105;DHT22;9179;50.968;3.134;2023-07-16T13:36:13;34.10;58.20
18105;DHT22;9179;50.968;3.134;2023-07-16T13:38:40;33.70;57.40
18105;DHT22;9179;50.968;3.134;2023-07-16T13:41:07;34.40;56.90
18105;DHT22;9179;50.968;3.134;2023-07-16T13:43:35;33.00;57.10
18105;DHT22;9179;50.968;3.134;2023-07-16T13:46:02;31.50;58.20
18105;DHT22;9179;50.968;3.134;2023-07-16T13:48:30;30.50;59.40
18105;DHT22;9179;50.968;3.134;2023-07-16T13:50:57;32.30;59.50
18105;DHT22;9179;50.968;3.134;2023-07-16T13:53:24;32.20;58.60
18105;DHT22;9179;50.968;3.134;2023-07-16T13:55:51;32.50;57.60
18105;DHT22;9179;50.968;3.134;2023-07-16T13:58:19;31.80;58.30
18105;DHT22;9179;50.968;3.134;2023-07-16T14:00:45;31.60;58.50
18105;DHT22;9179;50.968;3.134;2023-07-16T14:03:12;30.50;59.30
18105;DHT22;9179;50.968;3.134;2023-07-16T14:05:40;30.00;60.30
18105;DHT22;9179;50.968;3.134;2023-07-16T14:08:07;30.50;60.60
18105;DHT22;9179;50.968;3.134;2023-07-16T14:10:34;31.30;59.80
18105;DHT22;9179;50.968;3.134;2023-07-16T14:13:01;30.60;60.00
18105;DHT22;9179;50.968;3.134;2023-07-16T14:15:28;30.20;60.90
18105;DHT22;9179;50.968;3.134;2023-07-16T14:17:55;30.10;60.70
18105;DHT22;9179;50.968;3.134;2023-07-16T14:20:22;30.10;60.80
18105;DHT22;9179;50.968;3.134;2023-07-16T14:22:50;31.10;59.80
18105;DHT22;9179;50.968;3.134;2023-07-16T14:25:18;30.20;60.00
18105;DHT22;9179;50.968;3.134;2023-07-16T14:27:45;29.60;60.80
18105;DHT22;9179;50.968;3.134;2023-07-16T14:30:14;31.80;60.20
18105;DHT22;9179;50.968;3.134;2023-07-16T14:32:41;33.30;57.30
18105;DHT22;9179;50.968;3.134;2023-07-16T14:35:08;33.80;56.50
18105;DHT22;9179;50.968;3.134;2023-07-16T14:37:37;32.90;56.70
18105;DHT22;9179;50.968;3.134;2023-07-16T14:40:06;31.80;57.30
18105;DHT22;9179;50.968;3.134;2023-07-16T14:42:34;31.10;58.10
18105;DHT22;9179;50.968;3.134;2023-07-16T14:45:01;30.50;59.10
18105;DHT22;9179;50.968;3.134;2023-07-16T14:47:28;30.10;59.40
18105;DHT22;9179;50.968;3.134;2023-07-16T14:49:55;31.10;58.80
18105;DHT22;9179;50.968;3.134;2023-07-16T14:52:22;31.10;58.10
18105;DHT22;9179;50.968;3.134;2023-07-16T14:54:49;30.60;58.60
18105;DHT22;9179;50.968;3.134;2023-07-16T14:57:17;29.80;59.50
18105;DHT22;9179;50.968;3.134;2023-07-16T14:59:44;29.50;60.20
18105;DHT22;9179;50.968;3.134;2023-07-16T15:02:11;29.00;60.90
18105;DHT22;9179;50.968;3.134;2023-07-16T15:04:38;28.90;61.80
18105;DHT22;9179;50.968;3.134;2023-07-16T15:07:05;28.80;61.60
18105;DHT22;9179;50.968;3.134;2023-07-16T15:09:32;28.40;62.20
18105;DHT22;9179;50.968;3.134;2023-07-16T15:12:03;28.60;62.40
18105;DHT22;9179;50.968;3.134;2023-07-16T15:14:32;32.20;58.90
18105;DHT22;9179;50.968;3.134;2023-07-16T15:16:59;33.60;56.90
18105;DHT22;9179;50.968;3.134;2023-07-16T15:19:26;36.20;54.40
18105;DHT22;9179;50.968;3.134;2023-07-16T15:21:53;35.90;54.70
18105;DHT22;9179;50.968;3.134;2023-07-16T15:24:20;34.00;56.60
18105;DHT22;9179;50.968;3.134;2023-07-16T15:26:47;32.40;59.00
18105;DHT22;9179;50.968;3.134;2023-07-16T15:29:14;30.60;60.90
18105;DHT22;9179;50.968;3.134;2023-07-16T15:31:43;29.70;63.40
18105;DHT22;9179;50.968;3.134;2023-07-16T15:34:10;29.10;65.00
18105;DHT22;9179;50.968;3.134;2023-07-16T15:36:36;29.00;65.40
18105;DHT22;9179;50.968;3.134;2023-07-16T15:39:05;29.20;65.40
18105;DHT22;9179;50.968;3.134;2023-07-16T15:41:32;29.60;65.30
18105;DHT22;9179;50.968;3.134;2023-07-16T15:43:59;29.80;64.60
18105;DHT22;9179;50.968;3.134;2023-07-16T15:46:25;29.00;65.00
18105;DHT22;9179;50.968;3.134;2023-07-16T15:48:55;28.20;66.70
18105;DHT22;9179;50.968;3.134;2023-07-16T15:51:22;28.30;67.20